sensor_id;sensor_type;location;lat;lon;timestamp;P1;durP1;ratioP1;P2;durP2;ratioP2
60002;SDS011;46322;52.018;8.702;2022-08-18T00:02:42;83.47;;;45.78;;
60002;SDS011;46322;52.018;8.702;2022-08-18T00:07:42;77.83;;;41.53;;
60002;SDS011;46322;52.018;8.702;2022-08-18T00:12:43;81.53;;;43.47;;
60002;SDS011;46322;52.018;8.702;2022-08-18T00:17:44;75.38;;;40.90;;
60002;SDS011;46322;52.018;8.702;2022-08-18T00:22:45;79.63;;;43.87;;
60002;SDS011;46322;52.018;8.702;2022-08-18T00:27:45;80.27;;;43.53;;
60002;SDS011;46322;52.018;8.702;2022-08-18T00:32:47;83.30;;;44.30;;
60002;SDS011;46322;52.018;8.702;2022-08-18T00:37:52;85.82;;;44.75;;
60002;SDS011;46322;52.018;8.702;2022-08-18T00:42:54;86.07;;;44.17;;
60002;SDS011;46322;52.018;8.702;2022-08-18T00:47:57;90.60;;;45.90;;
60002;SDS011;46322;52.018;8.702;2022-08-18T00:52:59;83.82;;;40.65;;
60002;SDS011;46322;52.018;8.702;2022-08-18T00:58:22;91.40;;;46.10;;
60002;SDS011;46322;52.018;8.702;2022-08-18T01:03:26;87.97;;;45.07;;
60002;SDS011;46322;52.018;8.702;2022-08-18T01:08:27;81.37;;;37.50;;
60002;SDS011;46322;52.018;8.702;2022-08-18T01:13:28;90.80;;;45.23;;
60002;SDS011;46322;52.018;8.702;2022-08-18T01:18:30;89.83;;;44.87;;
60002;SDS011;46322;52.018;8.702;2022-08-18T01:23:31;86.07;;;44.13;;
60002;SDS011;46322;52.018;8.702;2022-08-18T01:34:03;90.03;;;43.50;;
60002;SDS011;46322;52.018;8.702;2022-08-18T01:39:08;86.38;;;44.38;;
60002;SDS011;46322;52.018;8.702;2022-08-18T01:44:10;87.20;;;42.73;;
60002;SDS011;46322;52.018;8.702;2022-08-18T01:49:11;87.07;;;42.13;;
60002;SDS011;46322;52.018;8.702;2022-08-18T01:54:12;84.55;;;42.72;;
60002;SDS011;46322;52.018;8.702;2022-08-18T01:59:13;73.03;;;36.40;;
60002;SDS011;46322;52.018;8.702;2022-08-18T02:04:15;78.88;;;40.00;;
60002;SDS011;46322;52.018;8.702;2022-08-18T02:09:15;78.90;;;40.87;;
60002;SDS011;46322;52.018;8.702;2022-08-18T02:14:16;84.60;;;42.75;;
60002;SDS011;46322;52.018;8.702;2022-08-18T02:19:16;99.47;;;48.35;;
60002;SDS011;46322;52.018;8.702;2022-08-18T02:24:16;95.72;;;48.28;;
60002;SDS011;46322;52.018;8.702;2022-08-18T02:29:17;100.97;;;48.27;;
60002;SDS011;46322;52.018;8.702;2022-08-18T02:34:17;98.80;;;48.75;;
60002;SDS011;46322;52.018;8.702;2022-08-18T02:39:37;101.28;;;48.88;;
60002;SDS011;46322;52.018;8.702;2022-08-18T02:44:38;108.13;;;50.63;;
60002;SDS011;46322;52.018;8.702;2022-08-18T02:49:49;99.13;;;48.77;;
60002;SDS011;46322;52.018;8.702;2022-08-18T02:54:49;92.03;;;45.07;;
60002;SDS011;46322;52.018;8.702;2022-08-18T03:00:02;84.68;;;44.00;;
60002;SDS011;46322;52.018;8.702;2022-08-18T03:05:03;99.13;;;49.15;;
60002;SDS011;46322;52.018;8.702;2022-08-18T03:10:05;90.43;;;43.33;;
60002;SDS011;46322;52.018;8.702;2022-08-18T03:15:05;88.03;;;43.13;;
60002;SDS011;46322;52.018;8.702;2022-08-18T03:20:11;78.18;;;39.38;;
60002;SDS011;46322;52.018;8.702;2022-08-18T03:25:11;77.05;;;39.03;;
60002;SDS011;46322;52.018;8.702;2022-08-18T03:30:13;81.77;;;40.97;;
60002;SDS011;46322;52.018;8.702;2022-08-18T03:35:13;108.20;;;52.22;;
60002;SDS011;46322;52.018;8.702;2022-08-18T03:40:14;110.07;;;53.73;;
60002;SDS011;46322;52.018;8.702;2022-08-18T03:45:14;106.63;;;50.13;;
60002;SDS011;46322;52.018;8.702;2022-08-18T03:50:17;99.85;;;49.60;;
60002;SDS011;46322;52.018;8.702;2022-08-18T03:55:18;107.85;;;53.50;;
60002;SDS011;46322;52.018;8.702;2022-08-18T04:00:18;103.00;;;51.40;;
60002;SDS011;46322;52.018;8.702;2022-08-18T04:05:18;105.47;;;53.47;;
60002;SDS011;46322;52.018;8.702;2022-08-18T04:10:19;115.20;;;55.85;;
60002;SDS011;46322;52.018;8.702;2022-08-18T04:15:19;111.23;;;52.03;;
60002;SDS011;46322;52.018;8.702;2022-08-18T04:20:19;113.13;;;53.80;;
60002;SDS011;46322;52.018;8.702;2022-08-18T04:25:19;105.90;;;52.15;;
60002;SDS011;46322;52.018;8.702;2022-08-18T04:30:20;108.68;;;53.20;;
60002;SDS011;46322;52.018;8.702;2022-08-18T04:35:20;105.65;;;50.88;;
60002;SDS011;46322;52.018;8.702;2022-08-18T04:40:20;104.75;;;51.65;;
60002;SDS011;46322;52.018;8.702;2022-08-18T04:45:22;100.50;;;50.50;;
60002;SDS011;46322;52.018;8.702;2022-08-18T04:50:26;88.13;;;42.87;;
60002;SDS011;46322;52.018;8.702;2022-08-18T04:55:27;91.93;;;44.33;;
60002;SDS011;46322;52.018;8.702;2022-08-18T05:00:27;102.47;;;47.30;;
60002;SDS011;46322;52.018;8.702;2022-08-18T05:05:27;101.83;;;48.27;;
60002;SDS011;46322;52.018;8.702;2022-08-18T05:10:28;96.40;;;46.50;;
60002;SDS011;46322;52.018;8.702;2022-08-18T05:15:28;95.43;;;44.77;;
60002;SDS011;46322;52.018;8.702;2022-08-18T05:20:28;92.00;;;43.30;;
60002;SDS011;46322;52.018;8.702;2022-08-18T05:25:29;93.37;;;44.43;;
60002;SDS011;46322;52.018;8.702;2022-08-18T05:30:29;88.40;;;40.70;;
60002;SDS011;46322;52.018;8.702;2022-08-18T05:35:45;87.73;;;39.90;;
60002;SDS011;46322;52.018;8.702;2022-08-18T05:46:37;81.22;;;37.95;;
60002;SDS011;46322;52.018;8.702;2022-08-18T05:51:51;74.80;;;37.07;;
60002;SDS011;46322;52.018;8.702;2022-08-18T05:57:03;73.43;;;36.42;;
60002;SDS011;46322;52.018;8.702;2022-08-18T06:02:11;75.65;;;35.95;;
60002;SDS011;46322;52.018;8.702;2022-08-18T06:07:18;71.17;;;33.43;;
60002;SDS011;46322;52.018;8.702;2022-08-18T06:12:34;70.50;;;34.70;;
60002;SDS011;46322;52.018;8.702;2022-08-18T06:17:45;66.00;;;34.05;;
60002;SDS011;46322;52.018;8.702;2022-08-18T06:28:44;68.70;;;32.50;;
60002;SDS011;46322;52.018;8.702;2022-08-18T06:39:31;56.50;;;31.13;;
60002;SDS011;46322;52.018;8.702;2022-08-18T06:44:40;51.30;;;29.60;;
60002;SDS011;46322;52.018;8.702;2022-08-18T06:50:07;51.45;;;29.27;;
60002;SDS011;46322;52.018;8.702;2022-08-18T06:55:35;50.13;;;29.27;;
60002;SDS011;46322;52.018;8.702;2022-08-18T07:00:41;53.70;;;30.13;;
60002;SDS011;46322;52.018;8.702;2022-08-18T07:11:18;47.90;;;28.52;;
60002;SDS011;46322;52.018;8.702;2022-08-18T07:16:31;47.10;;;28.10;;
60002;SDS011;46322;52.018;8.702;2022-08-18T07:21:33;47.90;;;28.33;;
60002;SDS011;46322;52.018;8.702;2022-08-18T07:32:15;44.05;;;25.80;;
60002;SDS011;46322;52.018;8.702;2022-08-18T07:37:20;44.53;;;26.73;;
60002;SDS011;46322;52.018;8.702;2022-08-18T07:48:02;40.70;;;25.50;;
60002;SDS011;46322;52.018;8.702;2022-08-18T07:53:14;41.67;;;23.93;;
60002;SDS011;46322;52.018;8.702;2022-08-18T08:14:42;39.63;;;23.73;;
60002;SDS011;46322;52.018;8.702;2022-08-18T08:30:29;38.10;;;23.60;;
60002;SDS011;46322;52.018;8.702;2022-08-18T08:35:34;40.03;;;23.45;;
60002;SDS011;46322;52.018;8.702;2022-08-18T08:46:03;37.83;;;23.97;;
60002;SDS011;46322;52.018;8.702;2022-08-18T08:51:21;35.13;;;22.63;;
60002;SDS011;46322;52.018;8.702;2022-08-18T08:56:29;30.50;;;20.83;;
60002;SDS011;46322;52.018;8.702;2022-08-18T09:06:48;30.10;;;19.50;;
60002;SDS011;46322;52.018;8.702;2022-08-18T09:22:57;28.80;;;19.10;;
60002;SDS011;46322;52.018;8.702;2022-08-18T09:33:54;28.38;;;19.35;;
60002;SDS011;46322;52.018;8.702;2022-08-18T09:39:29;28.67;;;20.37;;
60002;SDS011;46322;52.018;8.702;2022-08-18T09:49:55;31.48;;;20.85;;
60002;SDS011;46322;52.018;8.702;2022-08-18T10:00:27;30.85;;;20.67;;
60002;SDS011;46322;52.018;8.702;2022-08-18T10:05:29;32.23;;;21.70;;
60002;SDS011;46322;52.018;8.702;2022-08-18T10:10:33;32.50;;;22.00;;
60002;SDS011;46322;52.018;8.702;2022-08-18T10:21:25;32.85;;;21.40;;
60002;SDS011;46322;52.018;8.702;2022-08-18T10:32:04;33.53;;;21.87;;
60002;SDS011;46322;52.018;8.702;2022-08-18T10:36:58;34.55;;;22.23;;
60002;SDS011;46322;52.018;8.702;2022-08-18T10:47:23;33.40;;;22.13;;
60002;SDS011;46322;52.018;8.702;2022-08-18T10:52:40;33.05;;;22.65;;
60002;SDS011;46322;52.018;8.702;2022-08-18T10:57:57;31.70;;;21.25;;
60002;SDS011;46322;52.018;8.702;2022-08-18T11:03:30;34.43;;;22.27;;
60002;SDS011;46322;52.018;8.702;2022-08-18T11:08:41;30.80;;;21.47;;
60002;SDS011;46322;52.018;8.702;2022-08-18T11:19:27;27.05;;;20.50;;
60002;SDS011;46322;52.018;8.702;2022-08-18T11:24:34;25.57;;;18.00;;
60002;SDS011;46322;52.018;8.702;2022-08-18T11:30:03;25.55;;;19.80;;
60002;SDS011;46322;52.018;8.702;2022-08-18T11:45:19;24.17;;;18.13;;
60002;SDS011;46322;52.018;8.702;2022-08-18T11:50:26;25.73;;;18.65;;
60002;SDS011;46322;52.018;8.702;2022-08-18T11:55:31;27.13;;;18.77;;
60002;SDS011;46322;52.018;8.702;2022-08-18T12:00:53;26.60;;;19.73;;
60002;SDS011;46322;52.018;8.702;2022-08-18T12:05:56;23.25;;;17.73;;
60002;SDS011;46322;52.018;8.702;2022-08-18T12:11:04;28.80;;;21.23;;
60002;SDS011;46322;52.018;8.702;2022-08-18T12:16:29;29.40;;;21.20;;
60002;SDS011;46322;52.018;8.702;2022-08-18T12:21:36;27.50;;;19.73;;
60002;SDS011;46322;52.018;8.702;2022-08-18T12:26:41;27.00;;;19.30;;
60002;SDS011;46322;52.018;8.702;2022-08-18T12:31:42;29.77;;;19.48;;
60002;SDS011;46322;52.018;8.702;2022-08-18T12:36:43;27.57;;;19.47;;
60002;SDS011;46322;52.018;8.702;2022-08-18T12:41:43;26.05;;;19.45;;
60002;SDS011;46322;52.018;8.702;2022-08-18T12:46:44;23.27;;;17.93;;
60002;SDS011;46322;52.018;8.702;2022-08-18T12:51:45;23.57;;;18.10;;
60002;SDS011;46322;52.018;8.702;2022-08-18T12:56:49;24.07;;;18.60;;
60002;SDS011;46322;52.018;8.702;2022-08-18T13:01:52;23.10;;;17.55;;
60002;SDS011;46322;52.018;8.702;2022-08-18T13:06:53;22.03;;;16.70;;
60002;SDS011;46322;52.018;8.702;2022-08-18T13:11:55;22.83;;;17.67;;
60002;SDS011;46322;52.018;8.702;2022-08-18T13:16:55;23.92;;;18.98;;
60002;SDS011;46322;52.018;8.702;2022-08-18T13:21:55;24.75;;;19.00;;
60002;SDS011;46322;52.018;8.702;2022-08-18T13:26:56;22.30;;;16.90;;
60002;SDS011;46322;52.018;8.702;2022-08-18T13:31:56;24.38;;;17.75;;
60002;SDS011;46322;52.018;8.702;2022-08-18T13:36:56;21.67;;;16.03;;
60002;SDS011;46322;52.018;8.702;2022-08-18T13:41:56;20.85;;;16.55;;
60002;SDS011;46322;52.018;8.702;2022-08-18T13:46:57;21.17;;;17.13;;
60002;SDS011;46322;52.018;8.702;2022-08-18T13:51:57;23.23;;;17.25;;
60002;SDS011;46322;52.018;8.702;2022-08-18T13:56:58;20.40;;;17.27;;
60002;SDS011;46322;52.018;8.702;2022-08-18T14:02:00;21.35;;;17.55;;
60002;SDS011;46322;52.018;8.702;2022-08-18T14:07:02;21.50;;;17.27;;
60002;SDS011;46322;52.018;8.702;2022-08-18T14:12:05;17.93;;;15.93;;
60002;SDS011;46322;52.018;8.702;2022-08-18T14:17:12;19.98;;;17.83;;
60002;SDS011;46322;52.018;8.702;2022-08-18T14:22:12;19.55;;;17.38;;
60002;SDS011;46322;52.018;8.702;2022-08-18T14:27:12;21.00;;;17.42;;
60002;SDS011;46322;52.018;8.702;2022-08-18T14:32:13;18.83;;;16.50;;
60002;SDS011;46322;52.018;8.702;2022-08-18T14:37:19;18.02;;;15.20;;
60002;SDS011;46322;52.018;8.702;2022-08-18T14:42:19;17.03;;;15.20;;
60002;SDS011;46322;52.018;8.702;2022-08-18T14:47:21;14.73;;;13.13;;
60002;SDS011;46322;52.018;8.702;2022-08-18T14:52:22;14.37;;;12.63;;
60002;SDS011;46322;52.018;8.702;2022-08-18T14:57:22;15.00;;;12.53;;
60002;SDS011;46322;52.018;8.702;2022-08-18T15:02:23;12.88;;;11.32;;
60002;SDS011;46322;52.018;8.702;2022-08-18T15:07:23;11.87;;;10.53;;
60002;SDS011;46322;52.018;8.702;2022-08-18T15:12:25;14.15;;;12.27;;
60002;SDS011;46322;52.018;8.702;2022-08-18T15:17:25;12.87;;;10.00;;
60002;SDS011;46322;52.018;8.702;2022-08-18T15:22:25;10.17;;;8.60;;
60002;SDS011;46322;52.018;8.702;2022-08-18T15:27:32;10.83;;;9.17;;
60002;SDS011;46322;52.018;8.702;2022-08-18T15:32:34;11.98;;;8.70;;
60002;SDS011;46322;52.018;8.702;2022-08-18T15:37:35;12.53;;;9.43;;
60002;SDS011;46322;52.018;8.702;2022-08-18T15:42:43;10.05;;;8.23;;
60002;SDS011;46322;52.018;8.702;2022-08-18T15:47:52;10.90;;;8.15;;
60002;SDS011;46322;52.018;8.702;2022-08-18T15:52:56;9.33;;;7.80;;
60002;SDS011;46322;52.018;8.702;2022-08-18T15:57:58;9.50;;;7.90;;
60002;SDS011;46322;52.018;8.702;2022-08-18T16:03:04;8.88;;;7.43;;
60002;SDS011;46322;52.018;8.702;2022-08-18T16:08:06;10.50;;;7.73;;
60002;SDS011;46322;52.018;8.702;2022-08-18T16:13:07;10.27;;;7.72;;
60002;SDS011;46322;52.018;8.702;2022-08-18T16:18:08;9.17;;;8.10;;
60002;SDS011;46322;52.018;8.702;2022-08-18T16:23:08;8.80;;;7.90;;
60002;SDS011;46322;52.018;8.702;2022-08-18T16:28:09;9.25;;;7.60;;
60002;SDS011;46322;52.018;8.702;2022-08-18T16:33:10;8.90;;;7.33;;
60002;SDS011;46322;52.018;8.702;2022-08-18T16:38:11;8.75;;;7.45;;
60002;SDS011;46322;52.018;8.702;2022-08-18T16:43:12;10.40;;;7.43;;
60002;SDS011;46322;52.018;8.702;2022-08-18T16:48:12;9.32;;;7.50;;
60002;SDS011;46322;52.018;8.702;2022-08-18T16:53:12;8.73;;;6.88;;
60002;SDS011;46322;52.018;8.702;2022-08-18T16:58:16;9.35;;;7.13;;
60002;SDS011;46322;52.018;8.702;2022-08-18T17:03:16;8.57;;;6.77;;
60002;SDS011;46322;52.018;8.702;2022-08-18T17:08:17;9.27;;;6.87;;
60002;SDS011;46322;52.018;8.702;2022-08-18T17:13:17;8.13;;;6.47;;
60002;SDS011;46322;52.018;8.702;2022-08-18T17:18:17;8.40;;;6.40;;
60002;SDS011;46322;52.018;8.702;2022-08-18T17:23:18;8.77;;;6.30;;
60002;SDS011;46322;52.018;8.702;2022-08-18T17:28:18;8.87;;;6.63;;
60002;SDS011;46322;52.018;8.702;2022-08-18T17:33:21;8.25;;;6.47;;
60002;SDS011;46322;52.018;8.702;2022-08-18T17:38:29;8.37;;;6.00;;
60002;SDS011;46322;52.018;8.702;2022-08-18T17:43:34;9.43;;;6.18;;
60002;SDS011;46322;52.018;8.702;2022-08-18T17:48:43;7.10;;;5.93;;
60002;SDS011;46322;52.018;8.702;2022-08-18T17:53:48;7.90;;;6.77;;
60002;SDS011;46322;52.018;8.702;2022-08-18T17:58:52;8.37;;;6.37;;
60002;SDS011;46322;52.018;8.702;2022-08-18T18:03:54;7.95;;;5.90;;
60002;SDS011;46322;52.018;8.702;2022-08-18T18:08:56;10.40;;;5.97;;
60002;SDS011;46322;52.018;8.702;2022-08-18T18:13:59;8.45;;;6.30;;
60002;SDS011;46322;52.018;8.702;2022-08-18T18:19:36;8.18;;;5.97;;
60002;SDS011;46322;52.018;8.702;2022-08-18T18:24:37;7.30;;;5.18;;
60002;SDS011;46322;52.018;8.702;2022-08-18T18:29:51;8.40;;;5.70;;
60002;SDS011;46322;52.018;8.702;2022-08-18T18:40:26;9.88;;;5.80;;
60002;SDS011;46322;52.018;8.702;2022-08-18T18:45:35;9.10;;;5.37;;
60002;SDS011;46322;52.018;8.702;2022-08-18T18:55:56;8.55;;;5.18;;
60002;SDS011;46322;52.018;8.702;2022-08-18T19:01:33;8.50;;;5.50;;
60002;SDS011;46322;52.018;8.702;2022-08-18T19:06:46;10.87;;;5.27;;
60002;SDS011;46322;52.018;8.702;2022-08-18T19:12:17;8.00;;;5.35;;
60002;SDS011;46322;52.018;8.702;2022-08-18T19:17:26;9.40;;;5.38;;
60002;SDS011;46322;52.018;8.702;2022-08-18T19:27:52;8.48;;;5.22;;
60002;SDS011;46322;52.018;8.702;2022-08-18T19:32:59;9.23;;;5.32;;
60002;SDS011;46322;52.018;8.702;2022-08-18T19:38:12;11.50;;;5.47;;
60002;SDS011;46322;52.018;8.702;2022-08-18T19:43:19;10.60;;;5.68;;
60002;SDS011;46322;52.018;8.702;2022-08-18T19:48:38;10.05;;;5.50;;
60002;SDS011;46322;52.018;8.702;2022-08-18T20:15:55;10.00;;;5.70;;
60002;SDS011;46322;52.018;8.702;2022-08-18T20:31:53;9.00;;;5.63;;
60002;SDS011;46322;52.018;8.702;2022-08-18T20:36:57;9.00;;;5.15;;
60002;SDS011;46322;52.018;8.702;2022-08-18T20:42:03;9.13;;;5.60;;
60002;SDS011;46322;52.018;8.702;2022-08-18T20:52:22;8.00;;;5.80;;
60002;SDS011;46322;52.018;8.702;2022-08-18T20:57:27;8.93;;;6.35;;
60002;SDS011;46322;52.018;8.702;2022-08-18T21:02:36;9.50;;;6.22;;
60002;SDS011;46322;52.018;8.702;2022-08-18T21:07:40;9.60;;;6.83;;
60002;SDS011;46322;52.018;8.702;2022-08-18T21:13:07;13.05;;;6.90;;
60002;SDS011;46322;52.018;8.702;2022-08-18T21:18:17;11.37;;;7.20;;
60002;SDS011;46322;52.018;8.702;2022-08-18T21:23:21;12.50;;;7.00;;
60002;SDS011;46322;52.018;8.702;2022-08-18T21:28:25;11.32;;;7.13;;
60002;SDS011;46322;52.018;8.702;2022-08-18T21:33:29;10.93;;;7.27;;
60002;SDS011;46322;52.018;8.702;2022-08-18T21:38:30;10.98;;;7.05;;
60002;SDS011;46322;52.018;8.702;2022-08-18T21:43:39;10.07;;;6.60;;
60002;SDS011;46322;52.018;8.702;2022-08-18T21:48:47;10.65;;;6.78;;
60002;SDS011;46322;52.018;8.702;2022-08-18T21:53:49;13.50;;;7.27;;
60002;SDS011;46322;52.018;8.702;2022-08-18T21:58:57;12.27;;;7.23;;
60002;SDS011;46322;52.018;8.702;2022-08-18T22:04:15;10.73;;;7.18;;
60002;SDS011;46322;52.018;8.702;2022-08-18T22:09:32;12.70;;;7.03;;
60002;SDS011;46322;52.018;8.702;2022-08-18T22:19:46;14.68;;;7.10;;
60002;SDS011;46322;52.018;8.702;2022-08-18T22:24:51;12.70;;;7.15;;
60002;SDS011;46322;52.018;8.702;2022-08-18T22:30:03;13.93;;;7.40;;
60002;SDS011;46322;52.018;8.702;2022-08-18T22:35:04;14.30;;;7.40;;
60002;SDS011;46322;52.018;8.702;2022-08-18T22:40:26;11.73;;;7.53;;
60002;SDS011;46322;52.018;8.702;2022-08-18T22:45:26;13.65;;;7.00;;
60002;SDS011;46322;52.018;8.702;2022-08-18T22:50:29;13.30;;;6.82;;
60002;SDS011;46322;52.018;8.702;2022-08-18T22:55:29;13.27;;;7.17;;
60002;SDS011;46322;52.018;8.702;2022-08-18T23:00:29;14.05;;;7.07;;
60002;SDS011;46322;52.018;8.702;2022-08-18T23:05:30;14.23;;;7.47;;
60002;SDS011;46322;52.018;8.702;2022-08-18T23:10:30;12.43;;;7.60;;
60002;SDS011;46322;52.018;8.702;2022-08-18T23:15:30;15.02;;;7.88;;
60002;SDS011;46322;52.018;8.702;2022-08-18T23:20:39;14.57;;;7.93;;
60002;SDS011;46322;52.018;8.702;2022-08-18T23:25:39;15.07;;;7.88;;
60002;SDS011;46322;52.018;8.702;2022-08-18T23:30:40;16.52;;;7.88;;
60002;SDS011;46322;52.018;8.702;2022-08-18T23:35:42;12.50;;;7.47;;
60002;SDS011;46322;52.018;8.702;2022-08-18T23:40:43;13.07;;;8.27;;
60002;SDS011;46322;52.018;8.702;2022-08-18T23:45:47;13.32;;;8.13;;
60002;SDS011;46322;52.018;8.702;2022-08-18T23:50:47;13.88;;;7.50;;
60002;SDS011;46322;52.018;8.702;2022-08-18T23:55:48;13.13;;;7.38;;
